Time;durP1;ratioP1;P1;durP2;ratioP2;P2;SDS_P1;SDS_P2;PMS_P1;PMS_P2;Temp;Humidity;BMP_temperature;BMP_pressure;BME280_temperature;BME280_humidity;BME280_pressure;Samples;Min_cycle;Max_cycle;Signal;HPM_P1;HPM_P2
2023/06/07 00:00:17;;;;;;;16.33;6.18;;;;;;;;;;5036529;28;20048;-88
2023/06/07 00:02:43;;;;;;;;;;;;;;;;;;5036647;28;20084;-88
2023/06/07 00:05:12;;;;;;;21.00;6.38;;;;;;;;;;5052061;28;19971;-87
2023/06/07 00:07:39;;;;;;;18.42;6.03;;;;;;;;;;5050389;28;20044;-88
2023/06/07 00:10:05;;;;;;;17.38;6.18;;;;;;;;;;5010125;28;20049;-89
2023/06/07 00:12:32;;;;;;;17.40;6.55;;;;;;;;;;5034968;28;20051;-88
2023/06/07 00:15:00;;;;;;;20.63;6.15;;;;;;;;;;5051644;28;20118;-85
2023/06/07 00:17:27;;;;;;;19.52;6.30;;;;;;;;;;5052072;28;20087;-87
2023/06/07 00:19:54;;;;;;;15.98;6.07;;;;;;;;;;5051687;28;20045;-87
2023/06/07 00:22:20;;;;;;;12.18;5.45;;;;;;;;;;5032348;28;20095;-86
2023/06/07 00:24:46;;;;;;;;;;;;;;;;;;5016354;28;20053;-86
2023/06/07 00:27:12;;;;;;;15.55;5.93;;;;;;;;;;5031489;28;19917;-86
2023/06/07 00:29:38;;;;;;;15.70;5.93;;;;;;;;;;4999123;28;20497;-87
2023/06/07 00:32:04;;;;;;;17.08;5.78;;;;;;;;;;5015675;28;20415;-86
2023/06/07 00:34:30;;;;;;;19.65;5.97;;;;;;;;;;5031723;28;20065;-87
2023/06/07 00:36:57;;;;;;;23.98;6.35;;;;;;;;;;4998622;28;20461;-86
2023/06/07 00:39:24;;;;;;;;;;;;;;;;;;5016130;28;20057;-86
2023/06/07 00:41:51;;;;;;;18.02;5.82;;;;;;;;;;5015610;28;19921;-86
2023/06/07 00:44:17;;;;;;;16.88;6.05;;;;;;;;;;5015187;28;20060;-86
2023/06/07 00:46:43;;;;;;;15.15;5.18;;;;;;;;;;5015697;28;20063;-86
2023/06/07 00:49:10;;;;;;;15.63;5.45;;;;;;;;;;5015032;28;20107;-87
2023/06/07 00:51:36;;;;;;;20.40;6.30;;;;;;;;;;5031879;28;20046;-86
2023/06/07 00:54:05;;;;;;;18.10;6.30;;;;;;;;;;5031710;28;20077;-86
2023/06/07 00:56:31;;;;;;;17.80;6.18;;;;;;;;;;5031984;28;20060;-87
2023/06/07 00:58:58;;;;;;;18.90;5.82;;;;;;;;;;5014959;28;20092;-87
2023/06/07 01:01:25;;;;;;;17.83;6.38;;;;;;;;;;5015326;28;20053;-87
2023/06/07 01:03:51;;;;;;;12.23;5.80;;;;;;;;;;5047625;28;20406;-86
2023/06/07 01:06:17;;;;;;;16.98;6.22;;;;;;;;;;5055017;28;20041;-85
2023/06/07 01:08:43;;;;;;;;;;;;;;;;;;5023032;28;20089;-87
2023/06/07 01:11:10;;;;;;;19.02;6.07;;;;;;;;;;5055494;28;19975;-86
2023/06/07 01:13:38;;;;;;;18.77;6.45;;;;;;;;;;5039184;28;20049;-86
2023/06/07 01:16:04;;;;;;;14.45;6.60;;;;;;;;;;5055285;28;20049;-87
2023/06/07 01:18:30;;;;;;;22.65;6.38;;;;;;;;;;5055018;28;20040;-86
2023/06/07 01:20:57;;;;;;;16.25;6.68;;;;;;;;;;5038664;28;20433;-87
2023/06/07 01:23:31;;;;;;;15.55;6.25;;;;;;;;;;5040430;28;20116;-86
2023/06/07 01:25:58;;;;;;;22.02;6.78;;;;;;;;;;5019092;28;20473;-88
2023/06/07 01:28:28;;;;;;;13.80;6.05;;;;;;;;;;5002932;28;20127;-87
2023/06/07 01:30:55;;;;;;;21.08;6.78;;;;;;;;;;5019273;28;20057;-86
2023/06/07 01:33:21;;;;;;;15.60;6.13;;;;;;;;;;5034860;28;20060;-87
2023/06/07 01:35:49;;;;;;;15.80;6.20;;;;;;;;;;5018783;28;20088;-87
2023/06/07 01:38:17;;;;;;;20.08;6.07;;;;;;;;;;5068580;28;20057;-87
2023/06/07 01:40:44;;;;;;;15.70;6.22;;;;;;;;;;5068589;28;20095;-86
2023/06/07 01:43:10;;;;;;;14.07;5.85;;;;;;;;;;5066210;28;20045;-87
2023/06/07 01:45:37;;;;;;;15.82;6.13;;;;;;;;;;5022614;28;20443;-87
2023/06/07 01:48:04;;;;;;;19.98;7.00;;;;;;;;;;5034252;28;20049;-88
2023/06/07 01:50:30;;;;;;;12.57;5.70;;;;;;;;;;5033550;28;20049;-87
2023/06/07 01:52:56;;;;;;;17.35;6.40;;;;;;;;;;5034797;28;20072;-87
2023/06/07 01:55:22;;;;;;;;;;;;;;;;;;5018935;28;20041;-87
2023/06/07 01:58:00;;;;;;;16.65;6.57;;;;;;;;;;5035091;28;20373;-86
2023/06/07 02:00:39;;;;;;;13.10;6.28;;;;;;;;;;5034983;28;20095;-87
2023/06/07 02:03:11;;;;;;;19.00;7.00;;;;;;;;;;5034291;28;20056;-87
2023/06/07 02:05:44;;;;;;;19.27;7.00;;;;;;;;;;5034370;28;20037;-87
2023/06/07 02:08:14;;;;;;;13.10;6.97;;;;;;;;;;5034422;28;20435;-86
2023/06/07 02:10:43;;;;;;;16.40;6.53;;;;;;;;;;5043243;28;20088;-86
2023/06/07 02:13:09;;;;;;;11.60;6.70;;;;;;;;;;5053974;28;20513;-85
2023/06/07 02:15:35;;;;;;;19.63;7.10;;;;;;;;;;5037919;28;20525;-86
2023/06/07 02:18:02;;;;;;;20.95;7.82;;;;;;;;;;5054249;28;20490;-88
2023/06/07 02:20:29;;;;;;;19.10;7.13;;;;;;;;;;5037628;28;20041;-85
2023/06/07 02:22:56;;;;;;;20.65;7.78;;;;;;;;;;5037831;28;20049;-86
2023/06/07 02:25:22;;;;;;;15.75;7.20;;;;;;;;;;5054241;28;20037;-86
2023/06/07 02:27:50;;;;;;;17.80;7.38;;;;;;;;;;5033424;28;20052;-86
2023/06/07 02:30:16;;;;;;;18.48;7.03;;;;;;;;;;5039070;28;20044;-87
2023/06/07 02:32:45;;;;;;;;;;;;;;;;;;5036284;28;20101;-86
2023/06/07 02:35:11;;;;;;;13.18;6.88;;;;;;;;;;5035336;28;19932;-85
2023/06/07 02:37:37;;;;;;;21.60;8.10;;;;;;;;;;5050287;28;20103;-86
2023/06/07 02:40:08;;;;;;;;;;;;;;;;;;5033368;28;20449;-90
2023/06/07 02:42:36;;;;;;;16.08;7.28;;;;;;;;;;5033866;28;19971;-86
2023/06/07 02:45:02;;;;;;;19.15;7.75;;;;;;;;;;5017796;28;20057;-87
2023/06/07 02:47:29;;;;;;;17.67;7.28;;;;;;;;;;5050140;28;20049;-87
2023/06/07 02:49:55;;;;;;;18.92;8.07;;;;;;;;;;5033465;28;20048;-87
2023/06/07 02:52:22;;;;;;;19.80;8.27;;;;;;;;;;5033538;28;20051;-86
2023/06/07 02:54:48;;;;;;;20.42;9.23;;;;;;;;;;5050492;28;20045;-86
2023/06/07 02:57:14;;;;;;;;;;;;;;;;;;5050930;28;20045;-87
2023/06/07 02:59:41;;;;;;;19.05;8.10;;;;;;;;;;5017232;28;20333;-87
2023/06/07 03:02:07;;;;;;;19.50;7.63;;;;;;;;;;5017410;28;20136;-87
2023/06/07 03:04:33;;;;;;;15.07;7.78;;;;;;;;;;5050184;28;20092;-86
2023/06/07 03:07:00;;;;;;;17.85;7.97;;;;;;;;;;5033361;28;20417;-86
2023/06/07 03:09:26;;;;;;;;;;;;;;;;;;5017293;28;20168;-87
2023/06/07 03:11:52;;;;;;;19.30;8.45;;;;;;;;;;5033506;28;20381;-86
2023/06/07 03:14:19;;;;;;;15.57;8.45;;;;;;;;;;5050038;28;20483;-87
2023/06/07 03:16:45;;;;;;;18.42;8.32;;;;;;;;;;5049701;28;20171;-87
2023/06/07 03:19:11;;;;;;;19.30;8.23;;;;;;;;;;5032488;28;20107;-87
2023/06/07 03:21:44;;;;;;;19.70;8.60;;;;;;;;;;5025236;28;20046;-86
2023/06/07 03:24:11;;;;;;;21.95;7.72;;;;;;;;;;5015667;28;20092;-87
2023/06/07 03:26:37;;;;;;;18.67;8.93;;;;;;;;;;5032078;28;20479;-87
2023/06/07 03:29:03;;;;;;;17.15;8.20;;;;;;;;;;5032591;28;20108;-86
2023/06/07 03:31:29;;;;;;;17.92;7.97;;;;;;;;;;5016618;28;20041;-87
2023/06/07 03:33:55;;;;;;;18.00;8.77;;;;;;;;;;5033184;28;20480;-88
2023/06/07 03:36:24;;;;;;;20.30;7.70;;;;;;;;;;5032989;28;20049;-86
2023/06/07 03:38:50;;;;;;;18.73;8.63;;;;;;;;;;5016781;28;20052;-86
2023/06/07 03:41:16;;;;;;;18.17;8.23;;;;;;;;;;5016338;28;20046;-86
2023/06/07 03:43:42;;;;;;;20.23;8.73;;;;;;;;;;5016648;28;20057;-86
2023/06/07 03:46:11;;;;;;;22.08;8.25;;;;;;;;;;5032906;28;20474;-86
2023/06/07 03:48:38;;;;;;;23.60;9.02;;;;;;;;;;5026284;28;20079;-86
2023/06/07 03:51:04;;;;;;;;;;;;;;;;;;5036149;28;20055;-87
2023/06/07 03:53:30;;;;;;;20.23;9.55;;;;;;;;;;5052675;28;20387;-86
2023/06/07 03:55:56;;;;;;;19.83;8.25;;;;;;;;;;5052719;28;20124;-87
2023/06/07 03:58:24;;;;;;;23.85;9.32;;;;;;;;;;5019276;28;20136;-87
2023/06/07 04:00:51;;;;;;;18.35;9.20;;;;;;;;;;5019492;28;20480;-87
2023/06/07 04:03:24;;;;;;;23.13;9.05;;;;;;;;;;5034514;28;20056;-87
2023/06/07 04:05:50;;;;;;;18.40;8.98;;;;;;;;;;5035430;28;20088;-88
2023/06/07 04:08:16;;;;;;;;;;;;;;;;;;5032227;28;20053;-86
2023/06/07 04:10:42;;;;;;;19.10;8.65;;;;;;;;;;5016114;28;19983;-86
2023/06/07 04:13:08;;;;;;;20.83;8.95;;;;;;;;;;5016095;28;20103;-86
2023/06/07 04:15:34;;;;;;;;;;;;;;;;;;5032632;28;20041;-86
2023/06/07 04:18:00;;;;;;;22.33;9.07;;;;;;;;;;5032219;28;19921;-87
2023/06/07 04:20:27;;;;;;;20.05;9.20;;;;;;;;;;5015396;28;20045;-86
2023/06/07 04:22:53;;;;;;;18.48;8.27;;;;;;;;;;4999508;28;20057;-86
2023/06/07 04:25:24;;;;;;;27.00;8.75;;;;;;;;;;5031939;28;20046;-88
2023/06/07 04:27:51;;;;;;;18.50;8.50;;;;;;;;;;5016150;28;20044;-87
2023/06/07 04:30:20;;;;;;;24.65;8.13;;;;;;;;;;5015636;28;20509;-86
2023/06/07 04:32:46;;;;;;;23.35;8.00;;;;;;;;;;4999606;28;20053;-86
2023/06/07 04:35:14;;;;;;;17.63;7.55;;;;;;;;;;5030410;28;20053;-89
2023/06/07 04:37:45;;;;;;;18.15;7.10;;;;;;;;;;5031343;28;20045;-86
2023/06/07 04:40:13;;;;;;;15.80;6.60;;;;;;;;;;5016461;28;20140;-86
2023/06/07 04:42:40;;;;;;;17.88;6.85;;;;;;;;;;5024002;28;20049;-87
2023/06/07 04:45:07;;;;;;;25.30;7.07;;;;;;;;;;4999433;28;20084;-86
2023/06/07 04:47:33;;;;;;;17.35;6.38;;;;;;;;;;5014791;28;20104;-87
2023/06/07 04:50:00;;;;;;;15.85;6.10;;;;;;;;;;5031671;28;20049;-87
2023/06/07 04:52:28;;;;;;;16.92;5.60;;;;;;;;;;5031448;28;20124;-86
2023/06/07 04:54:56;;;;;;;22.52;6.65;;;;;;;;;;5016104;28;20049;-86
2023/06/07 04:57:23;;;;;;;18.83;6.20;;;;;;;;;;5015175;28;20041;-87
2023/06/07 04:59:51;;;;;;;19.73;6.60;;;;;;;;;;5036455;28;20049;-86
2023/06/07 05:02:17;;;;;;;18.33;6.25;;;;;;;;;;5032486;28;20496;-88
2023/06/07 05:04:44;;;;;;;;;;;;;;;;;;5030357;28;20041;-86
2023/06/07 05:07:13;;;;;;;17.67;5.90;;;;;;;;;;5013937;28;19964;-86
2023/06/07 05:09:39;;;;;;;18.55;6.50;;;;;;;;;;5030852;28;20115;-86
2023/06/07 05:12:06;;;;;;;;;;;;;;;;;;5049027;28;20132;-85
2023/06/07 05:14:32;;;;;;;15.70;6.13;;;;;;;;;;5014839;28;19924;-87
2023/06/07 05:16:59;;;;;;;19.63;5.75;;;;;;;;;;5026467;28;20045;-86
2023/06/07 05:19:26;;;;;;;17.85;6.03;;;;;;;;;;5014712;28;20053;-86
2023/06/07 05:21:51;;;;;;;;;;;;;;;;;;5015556;28;20056;-86
2023/06/07 05:24:17;;;;;;;17.63;6.03;;;;;;;;;;5031713;28;19921;-87
2023/06/07 05:26:44;;;;;;;25.27;6.15;;;;;;;;;;5031618;28;20053;-87
2023/06/07 05:29:10;;;;;;;13.02;5.00;;;;;;;;;;5031497;28;20487;-86
2023/06/07 05:31:36;;;;;;;17.63;6.10;;;;;;;;;;5031310;28;20048;-87
2023/06/07 05:34:02;;;;;;;16.17;5.63;;;;;;;;;;5031338;28;20045;-86
2023/06/07 05:36:29;;;;;;;18.67;5.47;;;;;;;;;;5014546;28;20045;-86
2023/06/07 05:38:56;;;;;;;22.38;5.78;;;;;;;;;;5049552;28;20056;-86
2023/06/07 05:41:22;;;;;;;;;;;;;;;;;;5031149;28;20079;-86
2023/06/07 05:43:48;;;;;;;15.05;4.90;;;;;;;;;;5015009;28;19924;-86
2023/06/07 05:46:14;;;;;;;26.50;5.60;;;;;;;;;;5015118;28;20048;-86
2023/06/07 05:48:40;;;;;;;22.75;5.28;;;;;;;;;;5016125;28;20053;-86
2023/06/07 05:51:06;;;;;;;22.00;5.05;;;;;;;;;;5001951;28;20403;-87
2023/06/07 05:53:32;;;;;;;;;;;;;;;;;;5034620;28;20498;-86
2023/06/07 05:55:58;;;;;;;22.17;5.30;;;;;;;;;;5017333;28;19921;-88
2023/06/07 05:58:26;;;;;;;17.52;4.97;;;;;;;;;;5034034;28;20041;-87
2023/06/07 06:00:53;;;;;;;12.30;4.70;;;;;;;;;;5034828;28;20042;-86
2023/06/07 06:03:19;;;;;;;14.38;4.70;;;;;;;;;;5048293;28;20075;-87
2023/06/07 06:05:45;;;;;;;10.80;4.30;;;;;;;;;;5018019;28;20131;-86
2023/06/07 06:08:13;;;;;;;;;;;;;;;;;;5044551;28;20123;-86
2023/06/07 06:10:39;;;;;;;;;;;;;;;;;;5054739;28;20273;-86
2023/06/07 06:13:05;;;;;;;13.80;4.45;;;;;;;;;;5037895;28;20016;-86
2023/06/07 06:15:31;;;;;;;;;;;;;;;;;;5071148;28;20052;-87
2023/06/07 06:17:57;;;;;;;11.88;4.20;;;;;;;;;;5037501;28;19921;-86
2023/06/07 06:20:23;;;;;;;;;;;;;;;;;;5054712;28;20049;-88
2023/06/07 06:22:50;;;;;;;12.50;4.43;;;;;;;;;;5034499;28;20293;-87
2023/06/07 06:25:16;;;;;;;19.40;4.95;;;;;;;;;;5017916;28;20475;-86
2023/06/07 06:27:42;;;;;;;12.77;4.32;;;;;;;;;;5033775;28;20672;-88
2023/06/07 06:30:08;;;;;;;16.27;4.53;;;;;;;;;;5034263;28;20474;-87
2023/06/07 06:32:35;;;;;;;;;;;;;;;;;;5051647;28;20092;-87
2023/06/07 06:35:01;;;;;;;13.23;4.60;;;;;;;;;;5036959;28;19924;-86
2023/06/07 06:37:27;;;;;;;18.63;5.10;;;;;;;;;;5036603;28;20045;-84
2023/06/07 06:39:54;;;;;;;13.23;4.63;;;;;;;;;;5085220;28;20056;-68
2023/06/07 06:42:20;;;;;;;12.73;4.35;;;;;;;;;;5052462;28;20048;-69
2023/06/07 06:44:46;;;;;;;14.70;4.32;;;;;;;;;;5052099;28;20075;-68
2023/06/07 06:47:12;;;;;;;15.38;4.30;;;;;;;;;;5052472;28;20098;-66
2023/06/07 06:49:38;;;;;;;10.55;3.90;;;;;;;;;;5050687;28;20068;-66
2023/06/07 06:52:04;;;;;;;;;;;;;;;;;;5053714;28;20080;-83
2023/06/07 06:54:30;;;;;;;12.02;4.20;;;;;;;;;;5036589;28;19978;-83
2023/06/07 06:56:56;;;;;;;;;;;;;;;;;;5053735;28;20053;-84
2023/06/07 06:59:22;;;;;;;15.93;4.28;;;;;;;;;;5052580;28;19924;-84
2023/06/07 07:01:48;;;;;;;;;;;;;;;;;;5034293;28;20049;-84
2023/06/07 07:04:15;;;;;;;13.88;4.43;;;;;;;;;;5040845;28;20358;-85
2023/06/07 07:06:42;;;;;;;15.30;4.38;;;;;;;;;;5019965;28;20049;-84
2023/06/07 07:09:09;;;;;;;16.08;4.60;;;;;;;;;;5036412;28;20123;-84
2023/06/07 07:11:35;;;;;;;15.02;4.45;;;;;;;;;;5020030;28;20102;-84
2023/06/07 07:14:01;;;;;;;11.98;4.10;;;;;;;;;;5036673;28;20048;-84
2023/06/07 07:16:29;;;;;;;16.10;3.92;;;;;;;;;;5052501;28;20056;-86
2023/06/07 07:18:55;;;;;;;14.98;3.60;;;;;;;;;;5036023;28;20048;-84
2023/06/07 07:21:21;;;;;;;14.38;3.88;;;;;;;;;;5069663;28;20132;-84
2023/06/07 07:23:47;;;;;;;;;;;;;;;;;;5049797;28;20740;-84
2023/06/07 07:26:13;;;;;;;10.27;3.22;;;;;;;;;;5033052;28;19928;-84
2023/06/07 07:28:39;;;;;;;;;;;;;;;;;;5066453;28;20502;-84
2023/06/07 07:31:06;;;;;;;20.60;4.65;;;;;;;;;;5066451;28;20031;-84
2023/06/07 07:33:32;;;;;;;13.43;4.30;;;;;;;;;;5032204;28;20111;-84
2023/06/07 07:36:00;;;;;;;15.95;3.97;;;;;;;;;;5049010;28;20461;-84
2023/06/07 07:38:26;;;;;;;15.95;4.30;;;;;;;;;;5049233;28;20075;-84
2023/06/07 07:40:52;;;;;;;11.18;3.80;;;;;;;;;;5041161;28;20049;-84
2023/06/07 07:43:18;;;;;;;15.52;4.38;;;;;;;;;;5036128;28;20044;-84
2023/06/07 07:45:44;;;;;;;;;;;;;;;;;;5086302;28;20080;-84
2023/06/07 07:48:10;;;;;;;14.55;4.00;;;;;;;;;;5034827;28;19964;-86
2023/06/07 07:50:38;;;;;;;9.30;3.58;;;;;;;;;;5051331;28;20053;-84
2023/06/07 07:53:05;;;;;;;12.25;3.75;;;;;;;;;;5051772;28;20041;-69
2023/06/07 07:55:32;;;;;;;16.02;4.10;;;;;;;;;;5040905;28;20121;-72
2023/06/07 07:57:58;;;;;;;10.25;3.38;;;;;;;;;;5031464;28;20398;-72
2023/06/07 08:00:24;;;;;;;12.93;3.83;;;;;;;;;;5030349;28;20047;-71
2023/06/07 08:02:50;;;;;;;;;;;;;;;;;;5030064;28;20088;-72
2023/06/07 08:05:16;;;;;;;11.15;4.10;;;;;;;;;;5038004;28;19956;-72
2023/06/07 08:07:42;;;;;;;;;;;;;;;;;;5029422;28;20046;-72
2023/06/07 08:10:09;;;;;;;13.85;4.25;;;;;;;;;;5029616;28;19946;-74
2023/06/07 08:12:35;;;;;;;11.32;3.25;;;;;;;;;;5039689;28;20059;-73
2023/06/07 08:15:01;;;;;;;15.00;4.40;;;;;;;;;;5036440;28;20096;-72
2023/06/07 08:17:27;;;;;;;12.95;4.38;;;;;;;;;;5061968;28;20183;-72
2023/06/07 08:19:53;;;;;;;19.75;4.47;;;;;;;;;;5061256;28;20049;-72
2023/06/07 08:22:19;;;;;;;;;;;;;;;;;;5062574;28;20049;-72
2023/06/07 08:24:45;;;;;;;12.17;4.10;;;;;;;;;;5033039;28;19931;-72
2023/06/07 08:27:11;;;;;;;;;;;;;;;;;;5038633;28;20088;-73
2023/06/07 08:29:37;;;;;;;9.77;3.55;;;;;;;;;;5042277;28;19998;-73
2023/06/07 08:32:03;;;;;;;;;;;;;;;;;;5049971;28;20048;-72
2023/06/07 08:34:30;;;;;;;13.07;4.32;;;;;;;;;;5047938;28;19931;-70
2023/06/07 08:36:57;;;;;;;9.57;3.70;;;;;;;;;;5049336;28;20045;-70
2023/06/07 08:39:23;;;;;;;12.20;4.32;;;;;;;;;;5048959;28;20052;-68
2023/06/07 08:41:49;;;;;;;;;;;;;;;;;;5049773;28;20041;-70
2023/06/07 08:44:15;;;;;;;12.63;4.93;;;;;;;;;;5050129;28;19955;-68
2023/06/07 08:46:41;;;;;;;;;;;;;;;;;;5046115;28;20052;-68
2023/06/07 08:49:07;;;;;;;10.57;4.50;;;;;;;;;;5046411;28;19924;-73
2023/06/07 08:51:33;;;;;;;;;;;;;;;;;;5049607;28;20122;-83
2023/06/07 08:54:02;;;;;;;12.52;4.40;;;;;;;;;;5034150;28;20407;-82
2023/06/07 08:56:32;;;;;;;12.88;4.60;;;;;;;;;;5051310;28;20055;-83
2023/06/07 08:58:58;;;;;;;13.10;3.92;;;;;;;;;;5061168;28;20553;-82
2023/06/07 09:01:24;;;;;;;17.23;4.85;;;;;;;;;;5031545;28;20049;-83
2023/06/07 09:03:53;;;;;;;8.32;3.58;;;;;;;;;;5050799;28;20081;-83
2023/06/07 09:06:21;;;;;;;9.65;3.85;;;;;;;;;;5023338;28;20040;-83
2023/06/07 09:08:47;;;;;;;14.68;4.40;;;;;;;;;;5030605;28;20506;-88
2023/06/07 09:11:14;;;;;;;9.18;3.60;;;;;;;;;;5038891;28;20490;-88
2023/06/07 09:13:40;;;;;;;11.20;3.60;;;;;;;;;;5048385;28;20057;-86
2023/06/07 09:16:06;;;;;;;;;;;;;;;;;;5051464;28;20049;-86
2023/06/07 09:18:53;;;;;;;14.63;4.78;;;;;;;;;;5040046;28;19924;-93
2023/06/07 09:21:20;;;;;;;6.80;3.65;;;;;;;;;;5036061;28;20398;-92
2023/06/07 09:23:46;;;;;;;11.80;4.75;;;;;;;;;;5028919;28;20544;-92
2023/06/07 09:26:12;;;;;;;13.90;5.07;;;;;;;;;;5020410;28;20041;-93
2023/06/07 09:28:38;;;;;;;;;;;;;;;;;;5012627;28;20183;-87
2023/06/07 09:31:04;;;;;;;16.52;4.70;;;;;;;;;;5036059;28;19994;-81
2023/06/07 09:33:30;;;;;;;;;;;;;;;;;;5035944;28;20123;-90
2023/06/07 09:36:03;;;;;;;12.35;4.05;;;;;;;;;;5038659;28;19967;-90
2023/06/07 09:38:29;;;;;;;11.27;3.45;;;;;;;;;;5055651;28;20045;-87
2023/06/07 09:40:55;;;;;;;;;;;;;;;;;;5022973;28;20086;-87
2023/06/07 09:43:21;;;;;;;9.10;3.83;;;;;;;;;;5038995;28;19921;-88
2023/06/07 09:45:46;;;;;;;;;;;;;;;;;;5088807;28;20045;-88
2023/06/07 09:48:13;;;;;;;12.90;4.00;;;;;;;;;;5036999;28;19943;-90
2023/06/07 09:50:54;;;;;;;10.50;3.80;;;;;;;;;;5038548;28;20045;-90
2023/06/07 09:53:20;;;;;;;8.85;3.15;;;;;;;;;;5055068;28;20394;-90
2023/06/07 09:55:46;;;;;;;;;;;;;;;;;;5031546;28;20077;-91
2023/06/07 09:58:19;;;;;;;8.85;3.47;;;;;;;;;;5045839;28;20319;-91
2023/06/07 10:00:46;;;;;;;13.45;4.50;;;;;;;;;;5051105;28;20049;-88
2023/06/07 10:03:12;;;;;;;6.28;3.08;;;;;;;;;;5076868;28;20048;-89
2023/06/07 10:05:39;;;;;;;12.43;4.60;;;;;;;;;;5005270;28;20052;-88
2023/06/07 10:08:05;;;;;;;7.40;3.35;;;;;;;;;;5007146;28;20057;-89
2023/06/07 10:10:34;;;;;;;11.80;3.40;;;;;;;;;;5017901;28;20063;-87
2023/06/07 10:13:03;;;;;;;12.15;4.20;;;;;;;;;;5037549;28;20471;-88
2023/06/07 10:15:30;;;;;;;11.25;4.10;;;;;;;;;;5023696;28;20068;-88
2023/06/07 10:18:17;;;;;;;14.27;4.32;;;;;;;;;;5036645;28;20143;-87
2023/06/07 10:21:01;;;;;;;9.85;3.42;;;;;;;;;;5042288;28;20440;-90
2023/06/07 10:23:37;;;;;;;8.25;3.17;;;;;;;;;;5040483;28;20037;-89
2023/06/07 10:26:21;;;;;;;12.80;3.95;;;;;;;;;;5043663;28;20046;-89
2023/06/07 10:28:51;;;;;;;12.50;4.10;;;;;;;;;;5080589;28;20041;-89
2023/06/07 10:31:17;;;;;;;7.10;3.33;;;;;;;;;;5025451;28;20119;-89
2023/06/07 10:33:44;;;;;;;10.60;3.55;;;;;;;;;;5033675;28;20053;-90
2023/06/07 10:36:10;;;;;;;10.25;4.00;;;;;;;;;;5031786;28;20127;-90
2023/06/07 10:38:36;;;;;;;12.90;3.80;;;;;;;;;;5033518;28;20056;-91
2023/06/07 10:41:03;;;;;;;7.90;2.97;;;;;;;;;;5034651;28;20046;-88
2023/06/07 10:43:30;;;;;;;8.80;3.05;;;;;;;;;;5015312;28;20088;-73
2023/06/07 10:46:18;;;;;;;11.30;4.45;;;;;;;;;;5046283;28;20045;-73
2023/06/07 10:48:45;;;;;;;8.40;3.50;;;;;;;;;;5038857;28;20061;-73
2023/06/07 10:51:12;;;;;;;13.30;4.50;;;;;;;;;;5029230;28;20049;-73
2023/06/07 10:53:53;;;;;;;16.92;4.75;;;;;;;;;;5031832;28;20084;-71
2023/06/07 10:56:27;;;;;;;6.38;3.25;;;;;;;;;;5030578;28;20079;-72
2023/06/07 10:58:53;;;;;;;11.98;4.43;;;;;;;;;;5047972;28;20044;-84
2023/06/07 11:01:24;;;;;;;8.70;3.25;;;;;;;;;;5010771;28;20489;-87
2023/06/07 11:03:50;;;;;;;13.00;4.35;;;;;;;;;;5028735;28;20509;-84
2023/06/07 11:06:17;;;;;;;11.45;3.60;;;;;;;;;;5026297;28;20067;-84
2023/06/07 11:08:44;;;;;;;5.85;2.40;;;;;;;;;;5030109;28;20107;-87
2023/06/07 11:11:28;;;;;;;6.82;3.05;;;;;;;;;;5022792;28;20056;-84
2023/06/07 11:13:55;;;;;;;10.38;3.83;;;;;;;;;;5060063;28;20045;-72
2023/06/07 11:16:24;;;;;;;8.93;3.55;;;;;;;;;;5076557;28;20083;-74
2023/06/07 11:18:56;;;;;;;9.18;3.17;;;;;;;;;;5029688;28;20427;-74
2023/06/07 11:21:26;;;;;;;11.57;4.10;;;;;;;;;;5030183;28;20103;-70
2023/06/07 11:24:11;;;;;;;7.45;2.70;;;;;;;;;;5030629;28;20489;-71
2023/06/07 11:26:37;;;;;;;7.00;2.58;;;;;;;;;;5030781;28;20124;-71
2023/06/07 11:29:05;;;;;;;10.35;3.58;;;;;;;;;;5038360;28;20079;-69
2023/06/07 11:31:31;;;;;;;7.50;2.90;;;;;;;;;;5045453;28;20490;-70
2023/06/07 11:33:57;;;;;;;5.55;2.58;;;;;;;;;;5030554;28;20096;-69
2023/06/07 11:36:23;;;;;;;7.03;2.90;;;;;;;;;;5044090;28;20037;-69
2023/06/07 11:38:54;;;;;;;10.63;3.80;;;;;;;;;;5043136;28;20127;-79
2023/06/07 11:41:23;;;;;;;7.00;2.50;;;;;;;;;;5053732;28;20052;-82
2023/06/07 11:43:56;;;;;;;8.25;2.83;;;;;;;;;;5033500;28;20087;-82
2023/06/07 11:46:23;;;;;;;9.48;2.90;;;;;;;;;;5016269;28;20136;-83
2023/06/07 11:48:50;;;;;;;8.68;2.95;;;;;;;;;;5028342;28;20402;-84
2023/06/07 11:51:17;;;;;;;10.57;2.88;;;;;;;;;;5064284;28;20056;-83
2023/06/07 11:53:47;;;;;;;7.40;2.75;;;;;;;;;;5039076;28;20077;-85
2023/06/07 11:56:14;;;;;;;5.57;2.08;;;;;;;;;;5035681;28;20049;-83
2023/06/07 11:58:41;;;;;;;6.22;2.42;;;;;;;;;;5050138;28;20053;-81
2023/06/07 12:01:07;;;;;;;9.27;2.72;;;;;;;;;;5049231;28;20051;-82
2023/06/07 12:03:34;;;;;;;13.35;3.50;;;;;;;;;;5048640;28;20776;-79
2023/06/07 12:06:00;;;;;;;10.80;3.25;;;;;;;;;;5012308;28;20697;-81
2023/06/07 12:08:31;;;;;;;10.55;3.35;;;;;;;;;;5050646;28;20064;-81
2023/06/07 12:10:57;;;;;;;8.60;2.85;;;;;;;;;;5041479;28;20049;-82
2023/06/07 12:13:23;;;;;;;9.23;2.90;;;;;;;;;;5017529;28;20044;-81
2023/06/07 12:15:53;;;;;;;11.50;3.50;;;;;;;;;;5051464;28;20134;-81
2023/06/07 12:18:21;;;;;;;6.88;2.13;;;;;;;;;;5050058;28;20041;-81
2023/06/07 12:20:48;;;;;;;4.18;2.33;;;;;;;;;;5033356;28;20148;-81
2023/06/07 12:23:15;;;;;;;11.30;2.80;;;;;;;;;;5033560;28;20318;-81
2023/06/07 12:25:41;;;;;;;9.18;3.05;;;;;;;;;;5051087;28;20059;-81
2023/06/07 12:28:14;;;;;;;6.50;2.70;;;;;;;;;;5034230;28;20048;-82
2023/06/07 12:30:47;;;;;;;7.57;2.30;;;;;;;;;;5034779;28;20053;-81
2023/06/07 12:33:14;;;;;;;9.18;2.78;;;;;;;;;;5041714;28;20076;-81
2023/06/07 12:35:41;;;;;;;8.63;2.78;;;;;;;;;;5030812;28;20051;-81
2023/06/07 12:38:07;;;;;;;9.88;3.15;;;;;;;;;;5030978;28;20505;-82
2023/06/07 12:40:34;;;;;;;8.52;2.92;;;;;;;;;;5040906;28;20068;-81
2023/06/07 12:43:00;;;;;;;10.52;3.00;;;;;;;;;;5033768;28;20091;-80
2023/06/07 12:45:26;;;;;;;8.82;2.90;;;;;;;;;;5050551;28;20407;-80
2023/06/07 12:47:53;;;;;;;9.35;2.80;;;;;;;;;;5033597;28;20548;-81
2023/06/07 12:50:19;;;;;;;13.70;3.30;;;;;;;;;;5033784;28;20159;-80
2023/06/07 12:52:45;;;;;;;8.68;2.70;;;;;;;;;;5051338;28;20400;-81
2023/06/07 12:55:11;;;;;;;11.45;2.85;;;;;;;;;;5050505;28;20291;-80
2023/06/07 12:57:37;;;;;;;11.00;3.15;;;;;;;;;;5045354;28;20041;-82
2023/06/07 13:00:03;;;;;;;5.90;2.10;;;;;;;;;;5018409;28;20136;-80
2023/06/07 13:02:30;;;;;;;7.07;2.45;;;;;;;;;;5018282;28;20494;-81
2023/06/07 13:04:56;;;;;;;8.00;2.50;;;;;;;;;;5017767;28;20061;-81
2023/06/07 13:07:23;;;;;;;8.23;3.10;;;;;;;;;;5034376;28;20132;-81
2023/06/07 13:09:50;;;;;;;10.73;3.03;;;;;;;;;;5017138;28;20053;-81
2023/06/07 13:12:17;;;;;;;7.95;2.63;;;;;;;;;;5017798;28;20057;-80
2023/06/07 13:14:43;;;;;;;9.05;2.95;;;;;;;;;;5018470;28;20049;-80
2023/06/07 13:17:10;;;;;;;11.98;3.20;;;;;;;;;;5034840;28;20045;-81
2023/06/07 13:19:36;;;;;;;10.02;3.03;;;;;;;;;;5034146;28;20046;-81
2023/06/07 13:22:02;;;;;;;9.32;3.17;;;;;;;;;;5050905;28;20095;-82
2023/06/07 13:24:29;;;;;;;8.15;3.28;;;;;;;;;;5035216;28;20403;-81
2023/06/07 13:26:56;;;;;;;9.73;3.00;;;;;;;;;;5034878;28;20494;-81
2023/06/07 13:29:22;;;;;;;7.32;2.83;;;;;;;;;;5034227;28;20137;-80
2023/06/07 13:31:49;;;;;;;10.18;3.30;;;;;;;;;;5034834;28;20041;-81
2023/06/07 13:34:15;;;;;;;10.57;2.90;;;;;;;;;;5050728;28;20567;-81
2023/06/07 13:36:41;;;;;;;10.13;3.05;;;;;;;;;;5018211;28;20430;-81
2023/06/07 13:39:07;;;;;;;9.43;3.10;;;;;;;;;;5017950;28;20140;-82
2023/06/07 13:41:47;;;;;;;7.03;2.58;;;;;;;;;;5032961;28;20053;-82
2023/06/07 13:45:13;;;;;;;4.72;2.22;;;;;;;;;;5041416;28;20100;-82
2023/06/07 13:47:41;;;;;;;8.13;2.92;;;;;;;;;;5029856;28;20052;-82
2023/06/07 13:50:50;;;;;;;7.85;2.70;;;;;;;;;;5030151;28;20056;-82
2023/06/07 13:53:57;;;;;;;9.10;3.00;;;;;;;;;;5065792;28;20052;-82
2023/06/07 14:00:41;;;;;;;7.50;2.90;;;;;;;;;;5052716;28;20081;-82
2023/06/07 14:04:01;;;;;;;6.32;2.50;;;;;;;;;;5051609;28;20055;-82
2023/06/07 14:06:55;;;;;;;7.03;2.75;;;;;;;;;;5043515;28;20510;-82
2023/06/07 14:09:29;;;;;;;6.85;2.70;;;;;;;;;;5067734;28;20135;-82
2023/06/07 14:12:13;;;;;;;10.07;3.17;;;;;;;;;;5029750;28;20072;-83
2023/06/07 14:14:51;;;;;;;8.07;3.00;;;;;;;;;;5043253;28;20465;-82
2023/06/07 14:17:45;;;;;;;10.00;3.33;;;;;;;;;;5050517;28;20157;-83
2023/06/07 14:20:39;;;;;;;8.20;3.03;;;;;;;;;;5051685;28;20040;-83
2023/06/07 14:23:13;;;;;;;8.80;2.83;;;;;;;;;;5051035;28;20155;-82
2023/06/07 14:25:39;;;;;;;10.38;3.38;;;;;;;;;;5034530;28;20052;-83
2023/06/07 14:28:26;;;;;;;10.05;3.35;;;;;;;;;;5049708;28;20128;-82
2023/06/07 14:31:16;;;;;;;9.05;3.17;;;;;;;;;;5023851;28;20123;-82
2023/06/07 14:34:01;;;;;;;6.90;2.47;;;;;;;;;;5038123;28;20064;-82
2023/06/07 14:36:47;;;;;;;7.53;2.70;;;;;;;;;;4984235;28;20080;-83
2023/06/07 14:39:13;;;;;;;9.45;2.90;;;;;;;;;;5030531;28;20479;-83
2023/06/07 14:41:39;;;;;;;8.70;2.90;;;;;;;;;;5048497;28;20040;-82
2023/06/07 14:44:12;;;;;;;7.30;3.03;;;;;;;;;;5049926;28;20056;-81
2023/06/07 14:46:47;;;;;;;7.75;2.88;;;;;;;;;;5035610;28;20513;-82
2023/06/07 14:49:13;;;;;;;10.80;3.08;;;;;;;;;;5023467;28;20132;-80
2023/06/07 14:51:39;;;;;;;7.38;3.28;;;;;;;;;;5039304;28;20056;-82
2023/06/07 14:54:06;;;;;;;6.07;2.58;;;;;;;;;;5035165;28;20437;-84
2023/06/07 14:56:32;;;;;;;7.32;2.75;;;;;;;;;;5034121;28;20064;-80